Terminal Aerodrome Forecast
Issued by NWS

Home | Current Version | Previous Version | Text Only | Print | Product List | Glossary Off
Versions: 1 2 3 4 5 6 7 8 9 10 11 12 13 14 15 16 17 18 19

000
FTUS43 KICT 221133
TAFRSL
TAF
KRSL 221133Z 2212/2312 07011KT P6SM SCT200
     FM221800 12012KT P6SM SCT200
     FM230700 13007KT P6SM BKN040=

USA.gov is the U.S. government's official web portal to all federal, state and local government web resources and services.